createdAt,value
2023-05-20T09:11:14.169Z,4.30
2023-05-20T09:13:40.992Z,3.92
2023-05-20T09:16:09.758Z,3.80
2023-05-20T09:18:52.243Z,3.85
2023-05-20T09:21:24.715Z,3.97
2023-05-20T09:23:53.213Z,4.18
2023-05-20T09:26:20.239Z,4.15
2023-05-20T09:28:47.069Z,4.78
2023-05-20T09:31:14.861Z,4.90
2023-05-20T09:33:41.633Z,4.20
2023-05-20T09:36:09.477Z,3.90
2023-05-20T09:38:40.199Z,4.22
2023-05-20T09:41:10.347Z,4.20
2023-05-20T09:43:38.066Z,4.70
2023-05-20T09:46:05.774Z,4.93
2023-05-20T09:48:34.213Z,4.45
2023-05-20T09:51:02.680Z,4.32
2023-05-20T09:53:29.706Z,4.30
2023-05-20T09:55:56.415Z,4.40
2023-05-20T09:58:25.206Z,4.32
2023-05-20T10:00:52.716Z,4.90
2023-05-20T10:03:22.789Z,4.07
2023-05-20T10:05:56.076Z,4.38
2023-05-20T10:08:44.716Z,4.68
2023-05-20T10:11:35.991Z,4.53
2023-05-20T10:14:28.307Z,4.45
2023-05-20T10:17:01.428Z,4.05
2023-05-20T10:19:33.926Z,4.50
2023-05-20T10:22:08.701Z,4.22
2023-05-20T10:24:44.204Z,4.30
2023-05-20T10:27:14.775Z,4.10
2023-05-20T10:29:51.330Z,4.20
2023-05-20T10:32:25.089Z,4.80
2023-05-20T10:34:52.180Z,4.43
2023-05-20T10:37:27.916Z,4.57
2023-05-20T10:40:05.889Z,4.38
2023-05-20T10:42:32.900Z,4.72
2023-05-20T10:44:59.625Z,4.00
2023-05-20T10:47:26.718Z,4.32
2023-05-20T10:49:53.598Z,4.72
2023-05-20T10:52:20.700Z,4.55
2023-05-20T10:54:58.107Z,4.65
2023-05-20T10:57:27.684Z,4.40
2023-05-20T10:59:55.196Z,4.45
2023-05-20T11:02:28.514Z,4.40
2023-05-20T11:04:58.992Z,3.95
2023-05-20T11:07:29.915Z,4.35
2023-05-20T11:09:57.586Z,4.20
2023-05-20T11:12:25.868Z,4.07
2023-05-20T11:14:52.840Z,4.22
2023-05-20T11:17:20.624Z,4.10
2023-05-20T11:19:48.447Z,3.92
2023-05-20T11:22:15.141Z,4.20
2023-05-20T11:24:41.996Z,4.20
2023-05-20T11:27:09.293Z,3.90
2023-05-20T11:29:36.106Z,4.07
2023-05-20T11:32:02.910Z,4.40
2023-05-20T11:34:36.834Z,3.75
2023-05-20T11:37:10.047Z,3.78
2023-05-20T11:39:37.758Z,3.97
2023-05-20T11:42:06.031Z,4.00
2023-05-20T11:44:33.215Z,3.85
2023-05-20T11:47:01.960Z,3.50
2023-05-20T11:49:29.030Z,4.13
2023-05-20T11:51:57.063Z,3.85
2023-05-20T11:54:24.696Z,3.72
2023-05-20T11:56:51.638Z,3.38
2023-05-20T11:59:18.349Z,3.92
2023-05-20T12:01:45.719Z,4.03
2023-05-20T12:04:16.495Z,3.80
2023-05-20T12:06:44.062Z,4.20
2023-05-20T12:09:11.396Z,3.83
2023-05-20T12:11:41.121Z,3.90
2023-05-20T12:14:08.649Z,3.83
2023-05-20T12:16:36.387Z,4.03
2023-05-20T12:19:04.181Z,3.65
2023-05-20T12:21:31.565Z,3.60
2023-05-20T12:24:01.705Z,3.55
2023-05-20T12:26:29.562Z,3.78
2023-05-20T12:28:57.459Z,4.05
2023-05-20T12:31:25.650Z,3.90
2023-05-20T12:33:52.382Z,3.85
2023-05-20T12:36:19.699Z,3.80
2023-05-20T12:38:46.764Z,3.80
2023-05-20T12:41:13.552Z,3.72
2023-05-20T12:43:40.250Z,3.42
2023-05-20T12:46:07.046Z,3.65
2023-05-20T12:48:33.781Z,3.40
2023-05-20T12:51:00.895Z,3.60
2023-05-20T12:53:27.587Z,3.20
2023-05-20T12:55:54.458Z,3.35
2023-05-20T12:58:21.209Z,3.90
2023-05-20T13:00:48.001Z,3.58
2023-05-20T13:03:15.021Z,3.72
2023-05-20T13:05:41.950Z,3.28
2023-05-20T13:08:10.110Z,3.17
2023-05-20T13:10:37.181Z,3.42
2023-05-20T13:13:04.326Z,3.53
2023-05-20T13:15:33.079Z,3.38
2023-05-20T13:18:01.482Z,3.25
2023-05-20T13:20:29.244Z,3.40
2023-05-20T13:22:55.896Z,3.08
2023-05-20T13:25:22.573Z,3.53
2023-05-20T13:27:49.314Z,3.40
2023-05-20T13:30:16.093Z,3.35
2023-05-20T13:32:42.829Z,3.67
2023-05-20T13:35:09.765Z,3.40
2023-05-20T13:37:36.476Z,3.30
2023-05-20T13:40:03.286Z,3.15
2023-05-20T13:42:29.996Z,3.40
2023-05-20T13:44:57.088Z,3.40
2023-05-20T13:47:23.799Z,2.97
2023-05-20T13:49:50.564Z,3.17
2023-05-20T13:52:17.402Z,3.28
2023-05-20T13:54:46.700Z,2.90
2023-05-20T13:57:13.804Z,3.53
2023-05-20T13:59:40.650Z,3.25
2023-05-20T14:02:07.929Z,3.45
2023-05-20T14:04:39.446Z,3.28
2023-05-20T14:07:09.339Z,3.50
2023-05-20T14:09:36.897Z,3.33
2023-05-20T14:12:04.331Z,3.20
2023-05-20T14:14:31.080Z,3.45
2023-05-20T14:16:57.852Z,3.38
2023-05-20T14:19:24.788Z,3.42
2023-05-20T14:21:51.697Z,2.90
2023-05-20T14:24:18.389Z,2.85
2023-05-20T14:26:45.053Z,2.70
2023-05-20T14:29:11.854Z,3.47
2023-05-20T14:31:39.336Z,3.10
2023-05-20T14:34:06.164Z,3.20
2023-05-20T14:36:32.965Z,3.30
2023-05-20T14:38:59.615Z,3.15
2023-05-20T14:41:26.283Z,2.72
2023-05-20T14:43:53.019Z,3.78
2023-05-20T14:46:19.819Z,2.95
2023-05-20T14:48:46.516Z,2.90
2023-05-20T14:51:13.327Z,3.10
2023-05-20T14:53:40.009Z,3.10
2023-05-20T14:56:06.877Z,2.90
2023-05-20T14:58:33.626Z,3.10
2023-05-20T15:01:00.587Z,2.72
2023-05-20T15:03:28.118Z,2.95
2023-05-20T15:05:54.942Z,3.28
2023-05-20T15:08:22.030Z,3.40
2023-05-20T15:10:48.941Z,3.30
2023-05-20T15:13:15.627Z,2.70
2023-05-20T15:15:42.298Z,3.22
2023-05-20T15:18:09.343Z,3.00
2023-05-20T15:20:36.035Z,2.90
2023-05-20T15:23:03.890Z,3.25
2023-05-20T15:25:30.673Z,3.60
2023-05-20T15:27:57.324Z,3.25
2023-05-20T15:30:24.231Z,4.05
2023-05-20T15:32:51.004Z,3.70
2023-05-20T15:35:17.768Z,3.67
2023-05-20T15:37:44.476Z,3.58
2023-05-20T15:40:11.423Z,3.95
2023-05-20T15:42:38.137Z,4.13
2023-05-20T15:45:05.131Z,3.72
2023-05-20T15:47:31.808Z,3.60
2023-05-20T15:49:58.475Z,3.65
2023-05-20T15:52:25.171Z,3.80
2023-05-20T15:54:51.950Z,4.20
2023-05-20T15:57:19.066Z,5.40
2023-05-20T15:59:45.940Z,4.82
2023-05-20T16:02:12.745Z,4.32
2023-05-20T16:04:39.489Z,4.53
2023-05-20T16:07:06.179Z,3.75
2023-05-20T16:09:32.831Z,4.25
2023-05-20T16:11:59.701Z,4.30
2023-05-20T16:14:26.433Z,5.00
2023-05-20T16:16:53.164Z,3.95
2023-05-20T16:19:19.914Z,3.63
2023-05-20T16:21:46.682Z,3.90
2023-05-20T16:24:13.811Z,5.03
2023-05-20T16:26:40.604Z,4.25
2023-05-20T16:29:07.312Z,3.28
2023-05-20T16:31:34.044Z,4.32
2023-05-20T16:34:00.891Z,4.10
2023-05-20T16:36:27.605Z,3.67
2023-05-20T16:38:54.338Z,3.72
2023-05-20T16:41:21.527Z,4.15
2023-05-20T16:43:48.189Z,4.63
2023-05-20T16:46:15.101Z,5.18
2023-05-20T16:48:42.619Z,4.20
2023-05-20T16:51:09.357Z,3.92
2023-05-20T16:53:36.363Z,4.30
2023-05-20T16:56:06.070Z,4.68
2023-05-20T16:58:32.759Z,5.32
2023-05-20T17:00:59.514Z,5.97
2023-05-20T17:03:26.186Z,5.95
2023-05-20T17:05:52.869Z,4.10
2023-05-20T17:08:19.540Z,4.55
2023-05-20T17:10:46.567Z,4.25
2023-05-20T17:13:13.254Z,4.22
2023-05-20T17:15:39.895Z,4.03
2023-05-20T17:18:06.825Z,4.95
2023-05-20T17:20:33.708Z,4.68
2023-05-20T17:23:00.690Z,6.25
2023-05-20T17:25:27.382Z,4.95
2023-05-20T17:27:54.080Z,4.40
2023-05-20T17:30:21.145Z,5.97
2023-05-20T17:32:47.925Z,4.72
2023-05-20T17:35:14.705Z,4.88
2023-05-20T17:37:41.679Z,4.57
2023-05-20T17:40:09.199Z,4.55
2023-05-20T17:42:36.033Z,4.18
2023-05-20T17:45:02.737Z,4.88
2023-05-20T17:47:29.465Z,5.60
2023-05-20T17:49:56.350Z,5.30
2023-05-20T17:52:23.013Z,5.13
2023-05-20T17:54:49.722Z,4.95
2023-05-20T17:57:16.455Z,5.47
2023-05-20T17:59:45.362Z,4.68
2023-05-20T18:02:12.559Z,5.32
2023-05-20T18:04:39.289Z,5.47
2023-05-20T18:07:07.338Z,6.15
2023-05-20T18:09:34.104Z,5.80
2023-05-20T18:12:00.844Z,5.32
2023-05-20T18:14:27.507Z,5.07
2023-05-20T18:17:00.947Z,5.47
2023-05-20T18:19:27.828Z,4.90
2023-05-20T18:21:54.797Z,5.18
2023-05-20T18:24:21.478Z,5.07
2023-05-20T18:26:48.209Z,5.20
2023-05-20T18:29:14.960Z,4.60
2023-05-20T18:31:43.362Z,6.38
2023-05-20T18:34:10.693Z,6.25
2023-05-20T18:36:37.735Z,5.22
2023-05-20T18:39:04.837Z,5.82
2023-05-20T18:41:43.260Z,5.72
2023-05-20T18:44:14.215Z,6.13
2023-05-20T18:46:40.996Z,5.38
2023-05-20T18:49:07.935Z,6.22
2023-05-20T18:51:34.649Z,5.75
2023-05-20T18:54:01.552Z,5.88
2023-05-20T18:56:28.543Z,5.20
2023-05-20T18:58:55.364Z,5.70
2023-05-20T19:01:22.227Z,5.35
2023-05-20T19:03:49.019Z,6.45
2023-05-20T19:06:16.434Z,5.95
2023-05-20T19:08:46.445Z,5.32
2023-05-20T19:11:13.091Z,6.38
2023-05-20T19:13:39.795Z,6.28
2023-05-20T19:16:06.974Z,5.50
2023-05-20T19:18:33.717Z,6.60
2023-05-20T19:21:00.496Z,6.32
2023-05-20T19:23:27.131Z,5.93
2023-05-20T19:25:53.826Z,5.60
2023-05-20T19:28:20.675Z,5.78
2023-05-20T19:30:47.421Z,5.82
2023-05-20T19:33:14.130Z,6.05
2023-05-20T19:35:40.815Z,5.82
2023-05-20T19:38:07.531Z,5.70
2023-05-20T19:40:35.555Z,5.53
2023-05-20T19:43:02.347Z,5.30
2023-05-20T19:45:29.059Z,5.30
2023-05-20T19:47:56.634Z,5.57
2023-05-20T19:50:23.412Z,5.55
2023-05-20T19:52:50.264Z,6.30
2023-05-20T19:55:16.980Z,5.97
2023-05-20T19:57:46.637Z,5.57
2023-05-20T20:00:13.818Z,5.97
2023-05-20T20:02:40.974Z,6.35
2023-05-20T20:05:08.786Z,5.30
2023-05-20T20:07:35.564Z,6.20
2023-05-20T20:10:02.321Z,6.35
2023-05-20T20:12:29.083Z,5.90
2023-05-20T20:14:56.258Z,6.78
2023-05-20T20:17:23.710Z,5.75
2023-05-20T20:19:53.272Z,6.30
2023-05-20T20:22:20.164Z,6.65
2023-05-20T20:24:47.049Z,7.10
2023-05-20T20:27:13.860Z,6.72
2023-05-20T20:29:43.332Z,6.38
2023-05-20T20:32:10.315Z,6.80
2023-05-20T20:34:37.414Z,6.20
2023-05-20T20:37:04.436Z,6.07
2023-05-20T20:39:31.235Z,6.50
2023-05-20T20:41:58.786Z,8.35
2023-05-20T20:44:26.705Z,7.30
2023-05-20T20:46:54.828Z,7.00
2023-05-20T20:49:22.792Z,6.78
2023-05-20T20:51:50.802Z,6.18
2023-05-20T20:54:17.528Z,6.97
2023-05-20T20:56:45.402Z,6.65
2023-05-20T20:59:13.513Z,7.40
2023-05-20T21:01:44.587Z,6.63
2023-05-20T21:04:13.573Z,7.00
2023-05-20T21:06:42.086Z,8.00
2023-05-20T21:09:09.453Z,8.48
2023-05-20T21:11:38.336Z,8.27
2023-05-20T21:14:05.425Z,8.05
2023-05-20T21:16:32.469Z,7.45
2023-05-20T21:18:59.227Z,6.45
2023-05-20T21:21:26.020Z,7.50
2023-05-20T21:23:54.162Z,6.50
2023-05-20T21:26:24.789Z,6.15
2023-05-20T21:28:52.301Z,6.97
2023-05-20T21:31:19.110Z,6.85
2023-05-20T21:33:45.902Z,6.72
2023-05-20T21:36:12.606Z,7.30
2023-05-20T21:38:39.831Z,7.45
2023-05-20T21:41:06.813Z,6.63
2023-05-20T21:43:33.471Z,6.28
2023-05-20T21:46:00.384Z,6.93
2023-05-20T21:48:27.135Z,6.80
2023-05-20T21:50:53.878Z,6.72
2023-05-20T21:53:20.657Z,6.78
2023-05-20T21:55:47.313Z,6.78
2023-05-20T21:58:14.057Z,6.43
2023-05-20T22:00:41.029Z,7.63
2023-05-20T22:03:07.938Z,6.78
2023-05-20T22:05:35.182Z,6.40
2023-05-20T22:08:02.056Z,6.45
2023-05-20T22:10:28.817Z,6.82
2023-05-20T22:12:55.771Z,7.35
2023-05-20T22:15:22.989Z,6.50
2023-05-20T22:17:49.823Z,6.85
2023-05-20T22:20:16.732Z,7.38
2023-05-20T22:22:43.379Z,7.53
2023-05-20T22:25:10.823Z,7.28
2023-05-20T22:27:38.639Z,7.32
2023-05-20T22:30:08.130Z,6.93
2023-05-20T22:32:34.849Z,7.27
2023-05-20T22:35:01.543Z,7.05
2023-05-20T22:37:31.242Z,7.65
2023-05-20T22:39:57.951Z,8.23
2023-05-20T22:42:24.649Z,7.20
2023-05-20T22:44:51.398Z,7.35
2023-05-20T22:47:18.147Z,8.07
2023-05-20T22:49:44.999Z,7.07
2023-05-20T22:52:11.804Z,7.88
2023-05-20T22:54:38.484Z,7.38
2023-05-20T22:57:05.390Z,7.70
2023-05-20T22:59:32.852Z,7.35
2023-05-20T23:01:59.645Z,7.95
2023-05-20T23:04:26.551Z,7.60
2023-05-20T23:06:53.919Z,8.27
2023-05-20T23:09:21.017Z,7.88
2023-05-20T23:11:47.741Z,7.35
2023-05-20T23:14:14.434Z,7.60
2023-05-20T23:16:42.105Z,7.57
2023-05-20T23:19:09.149Z,8.50
2023-05-20T23:21:37.301Z,7.47
2023-05-20T23:24:04.533Z,8.10
2023-05-20T23:26:31.560Z,7.93
2023-05-20T23:28:58.287Z,7.35
2023-05-20T23:31:26.851Z,8.07
2023-05-20T23:33:54.217Z,8.13
2023-05-20T23:36:21.077Z,8.57
2023-05-20T23:38:47.817Z,7.30
2023-05-20T23:41:14.510Z,8.15
2023-05-20T23:43:41.306Z,7.53
2023-05-20T23:46:08.274Z,8.15
2023-05-20T23:48:35.969Z,8.32
2023-05-20T23:51:03.211Z,7.35
2023-05-20T23:53:30.058Z,7.68
2023-05-20T23:55:56.782Z,7.68
2023-05-20T23:58:23.578Z,7.95
